Wolcott, IN (47995)

1:07 AM EST on December 06, 2016 (GMT -0500)
Farm | | Change Station

Elev 686 ft 40.70 °N, 86.89 °W | Updated 45 seconds ago

Mist
Mist
32.5 °F
Feels Like 29 °F
N
4.0
Wind Variable Wind from NNE
Gusts 4.9 mph

Today
High -- | Low -- °F
--% Chance of Precip.
Yesterday
High -- | Low -- °F
Precip. -- in
Pressure 29.91 in
Visibility 5.0 miles
Clouds
Windchill 29 °F
Dew Point 30 °F
Humidity 90%
Rainfall 0.00 in
Snow Depth Not available.
7:58 AM 5:20 PM
Waxing Crescent, 38% visible
METAR KRZL 060555Z AUTO 07005KT 5SM BR 00/00 A2991 RMK AO2
Pressure 29.91 in
Visibility 5.0 miles
Clouds
Windchill 29 °F
Dew Point 30 °F
Humidity 90%
Rainfall 0.00 in
Snow Depth Not available.
7:58 AM 5:20 PM
Waxing Crescent, 38% visible
METAR KRZL 060555Z AUTO 07005KT 5SM BR 00/00 A2991 RMK AO2

10-Day Weather Forecast

Almanac

Astronomy

Dec. 06, 2016 Rise Set
Actual Time
Civil Twilight
Nautical Twilight
Astronomical Twilight
Moon
Length of Visible Light
Length of Day
Tomorrow will be .
, % of the Moon is Illuminated

Today's Extremes

State Highs State Lows

Community

WunderPhotos

Upload Photos

1,955,931 photos uploaded!

WunderBlog® & News

Nearby

Air Quality

  Air Quality AQ Index Pollutant
Not available.

Snow Depth

Station Depth Elevation

Earthquake Activity

City Distance Mag. Time & Date
Minimum magnitude displayed is 2.5.

Coastal Water Temperatures

Place Temperature

Stations

Nearby Weather Stations

Station Location Temp. Windchill Dew Point Humidity Wind Precip. Elev Updated Type
                   

Watches & Warnings

There are currently no watches in effect.